x

Dunkirk, Ny (dbln6) Weather Station

4:00pm - Fri 1st Aug 2014 All times are CDT. -5 hours from GMT.

  • Wind
    1mph, 2mph gusts
  • Air Temp 76°f
  • Sea Pressure 1019mb
  • Dunkirk, Ny
  • Dunkirk, Ny

More Historic Weather Station data

Upgrade to MSW Pro to gain access to the past 30 days of data for over 8000 Wavebouys and Weather Stations around the globe.

Join Pro

Comparision Forecast

View Surf forecast
   
Fri 08/01 4:00pm 1 2 mph 1019mb 76f
3:00pm 3 5 mph 1019.6mb 76f
2:00pm 2 3 mph 1020.2mb 75f
1:00pm 2 3 mph 1020.4mb 73f
12:00pm 3 6 mph 1020.5mb 75f
11:00am 6 8 mph 1020.5mb 74f
10:00am 8 10 mph 1020.3mb 73f
9:00am 10 11 mph 1020.2mb 73f
8:00am 6 10 mph 1020.4mb 72f
7:00am 7 9 mph 1020.1mb 68f
6:00am 6 8 mph 1019.5mb 65f
5:00am 6 7 mph 1018.9mb 66f
4:00am 8 11 mph 1018.3mb 66f
3:00am 7 13 mph 1018.2mb 66f
2:00am 6 8 mph 1018.5mb 67f
1:00am 10 11 mph 1018.2mb 65f
12:00am 11 14 mph 1018.5mb 65f
Thu 07/31 11:00pm 8 10 mph 1018.4mb 65f
10:00pm 8 9 mph 1018.5mb 64f
9:00pm 7 8 mph 1018.7mb 65f
8:00pm 5 7 mph 1018.5mb 68f
7:00pm 6 9 mph 1018.3mb 71f
6:00pm 11 16 mph 1018mb 71f
5:00pm 17 22 mph 1017.6mb 71f
4:00pm 13 20 mph 1017.6mb 71f
3:00pm 15 20 mph 1017.5mb 71f
2:00pm 15 21 mph 1017.3mb 71f
1:00pm 9 15 mph 1017.3mb 70f
12:00pm 20 25 mph 1016.5mb 70f
11:00am 20 24 mph 1016.3mb 70f
10:00am 15 20 mph 1016.4mb 68f
9:00am 13 17 mph 1016.1mb 67f
8:00am 5 7 mph 1016.4mb 64f
7:00am 2 6 mph 1016.6mb 62f
6:00am 6 8 mph 1016mb 60f
5:00am 6 7 mph 1015.9mb 59f
4:00am 3 5 mph 1015.9mb 58f
3:00am 6 8 mph 1015.4mb 59f
2:00am 20 28 mph 1015mb 60f
1:00am  -  2 mph 1015.2mb 63f
12:00am 7 9 mph 1015.4mb 63f
Wed 07/30 11:00pm 8 10 mph 1015.7mb 63f
10:00pm 6 8 mph 1016.1mb 64f
9:00pm 6 10 mph 1016.2mb 65f
8:00pm 3 7 mph 1015.5mb 67f
7:00pm 13 17 mph 1015.2mb 69f
6:00pm 13 18 mph 1015mb 69f
5:00pm 13 18 mph 1014.8mb 70f
4:00pm 13 18 mph 1014.6mb 70f
3:00pm 11 16 mph 1014.5mb 69f
2:00pm 15 20 mph 1014.5mb 70f
1:00pm 16 21 mph 1014.4mb 68f
12:00pm 21 25 mph 1014.4mb 68f
11:00am 18 23 mph 1014.8mb 68f
10:00am 7 11 mph 1015.3mb 67f
9:00am 7 11 mph 1015.3mb 65f
8:00am 6 10 mph 1015.4mb 64f
7:00am 5 8 mph 1015.3mb 61f
6:00am 5 8 mph 1014.9mb 59f
5:00am 5 8 mph 1014.8mb 59f
4:00am 5 7 mph 1014.5mb 58f
3:00am 9 13 mph 1014.3mb 59f
2:00am 6 10 mph 1014.9mb 59f
1:00am 7 9 mph 1014.8mb 61f
12:00am 7 9 mph 1015mb 60f
Tue 07/29 11:00pm 5 8 mph 1015.3mb 61f
10:00pm 5 9 mph 1015.4mb 63f
9:00pm 6 8 mph 1015.4mb 62f
8:00pm 6 8 mph 1015.3mb 65f
7:00pm 16 20 mph 1014.9mb 66f
6:00pm 11 16 mph 1015mb 67f
5:00pm 9 17 mph 1014.9mb 66f
4:00pm 10 16 mph 1014.7mb 67f
3:00pm 10 16 mph 1014.6mb 67f
2:00pm 11 16 mph 1014.6mb 67f
1:00pm 7 10 mph 1014.8mb 65f
12:00pm 5 8 mph 1014.9mb 65f
11:00am 5 8 mph 1014.9mb 64f
10:00am 2 6 mph 1014.6mb 64f
9:00am 3 9 mph 1014.4mb 63f
8:00am 2 7 mph 1013.9mb 63f
7:00am 7 10 mph 1013.6mb 62f
6:00am 7 10 mph 1013.1mb 62f
5:00am 9 13 mph 1012.5mb 62f
4:00am 5 7 mph 1012.3mb 61f
3:00am 3 7 mph 1012.2mb 60f
2:00am 2 6 mph 1012.3mb 60f
1:00am 5 10 mph 1012.5mb 60f
12:00am 7 13 mph 1012.5mb 61f
Mon 07/28 11:00pm 8 14 mph 1012.4mb 61f